Time;durP1;ratioP1;P1;durP2;ratioP2;P2;SDS_P1;SDS_P2;PMS_P1;PMS_P2;Temp;Humidity;BMP_temperature;BMP_pressure;BME280_temperature;BME280_humidity;BME280_pressure;Samples;Min_cycle;Max_cycle;Signal;HPM_P1;HPM_P2
2023/04/13 00:01:13;;;;;;;1.92;1.45;;;;;;;4.66;95.24;97784.56;5055910;28;20041;-60
2023/04/13 00:03:40;;;;;;;2.78;1.13;;;;;;;4.56;95.57;97784.38;5060168;28;20053;-60
2023/04/13 00:06:09;;;;;;;2.40;1.45;;;;;;;4.54;95.76;97788.09;5056612;28;20041;-59
2023/04/13 00:08:38;;;;;;;2.83;1.30;;;;;;;4.53;96.24;97778.50;5052458;28;20497;-59
2023/04/13 00:11:06;;;;;;;4.60;1.42;;;;;;;4.59;95.49;97779.38;5056237;28;20343;-59
2023/04/13 00:13:39;;;;;;;1.77;1.17;;;;;;;4.76;94.28;97779.41;5057761;28;20048;-60
2023/04/13 00:16:08;;;;;;;3.78;1.50;;;;;;;4.75;93.77;97777.81;5054669;28;20045;-60
2023/04/13 00:18:35;;;;;;;2.40;1.30;;;;;;;4.85;93.72;97767.34;5053007;28;20055;-60
2023/04/13 00:21:02;;;;;;;3.90;1.00;;;;;;;4.96;91.76;97769.13;5057057;28;20067;-60
2023/04/13 00:23:30;;;;;;;4.00;1.30;;;;;;;5.10;90.73;97771.47;5060388;28;20131;-60
2023/04/13 00:26:00;;;;;;;3.13;1.10;;;;;;;5.05;91.90;97758.09;5050514;28;20260;-60
2023/04/13 00:28:28;;;;;;;3.70;1.55;;;;;;;5.02;91.20;97758.56;5056804;28;20074;-60
2023/04/13 00:30:55;;;;;;;2.95;1.40;;;;;;;4.97;92.08;97760.13;5054967;28;20499;-60
2023/04/13 00:33:23;;;;;;;4.07;1.20;;;;;;;5.09;89.57;97767.19;5063622;28;20036;-59
2023/04/13 00:35:51;;;;;;;3.33;1.60;;;;;;;5.09;90.84;97762.69;5053173;28;20053;-59
2023/04/13 00:38:22;;;;;;;5.78;1.70;;;;;;;5.03;89.97;97762.84;5059605;28;20036;-60
2023/04/13 00:40:53;;;;;;;2.78;1.35;;;;;;;4.99;90.16;97759.84;5041303;28;20083;-60
2023/04/13 00:43:22;;;;;;;5.97;1.35;;;;;;;5.07;89.42;97769.31;5043598;28;20052;-60
2023/04/13 00:45:49;;;;;;;4.60;1.23;;;;;;;5.07;90.33;97766.66;5029825;28;20042;-60
2023/04/13 00:48:16;;;;;;;3.50;1.40;;;;;;;5.12;88.43;97750.78;5037484;28;20365;-60
2023/04/13 00:50:43;;;;;;;4.07;1.50;;;;;;;5.11;88.53;97760.59;5026339;28;20053;-59
2023/04/13 00:53:12;;;;;;;3.35;1.38;;;;;;;5.13;88.40;97766.47;5039837;28;20585;-60
2023/04/13 00:55:41;;;;;;;3.55;1.40;;;;;;;5.20;88.62;97763.66;5040902;28;20048;-59
2023/04/13 00:58:08;;;;;;;3.42;1.20;;;;;;;5.23;87.89;97771.13;5059315;28;20418;-60
2023/04/13 01:00:37;;;;;;;4.07;1.45;;;;;;;5.30;87.67;97777.06;5058966;28;20132;-61
2023/04/13 01:03:04;;;;;;;4.90;1.60;;;;;;;5.30;87.80;97785.03;5062330;28;20045;-60
2023/04/13 01:05:33;;;;;;;3.85;1.40;;;;;;;5.31;88.48;97781.31;5058004;28;20296;-60
2023/04/13 01:08:07;;;;;;;5.80;1.50;;;;;;;5.38;88.19;97787.28;5050229;28;20056;-60
2023/04/13 01:10:38;;;;;;;1.52;1.20;;;;;;;5.49;86.90;97790.91;5060141;28;20135;-59
2023/04/13 01:13:09;;;;;;;;;;;;;;;5.49;87.23;97769.66;5057507;28;20052;-60
2023/04/13 01:15:41;;;;;;;6.25;1.67;;;;;;;5.50;87.50;97773.09;5061152;28;19970;-60
2023/04/13 01:18:10;;;;;;;6.88;1.63;;;;;;;5.44;87.60;97768.75;5060572;28;20168;-60
2023/04/13 01:20:39;;;;;;;1.35;0.98;;;;;;;5.50;88.39;97773.09;5058986;28;20040;-59
2023/04/13 01:23:09;;;;;;;3.60;1.20;;;;;;;5.44;87.85;97766.09;5054881;28;20558;-59
2023/04/13 01:25:39;;;;;;;2.38;1.40;;;;;;;5.49;87.10;97784.75;5055670;28;20628;-59
2023/04/13 01:28:08;;;;;;;5.40;1.73;;;;;;;5.37;88.28;97785.69;5063400;28;20052;-59
2023/04/13 01:30:36;;;;;;;3.88;1.42;;;;;;;5.41;87.62;97781.47;5046990;28;20056;-59
2023/04/13 01:33:05;;;;;;;3.45;1.40;;;;;;;5.40;87.77;97779.06;5053606;28;20041;-60
2023/04/13 01:35:33;;;;;;;5.55;1.40;;;;;;;5.43;87.99;97793.72;5073125;28;20041;-60
2023/04/13 01:38:01;;;;;;;5.00;1.52;;;;;;;5.40;87.83;97779.88;5053085;28;20052;-59
2023/04/13 01:40:31;;;;;;;6.63;1.60;;;;;;;5.30;88.93;97774.41;5035108;28;20052;-60
2023/04/13 01:42:58;;;;;;;4.97;1.50;;;;;;;5.35;88.67;97782.47;5057056;28;20049;-60
2023/04/13 01:45:35;;;;;;;7.53;1.65;;;;;;;5.25;89.71;97782.31;5061265;28;20092;-60
2023/04/13 01:48:07;;;;;;;5.97;1.70;;;;;;;5.23;89.78;97789.72;5056951;28;20041;-60
2023/04/13 01:50:58;;;;;;;4.97;1.60;;;;;;;5.22;89.67;97782.81;5061059;28;20051;-59
2023/04/13 01:53:39;;;;;;;3.83;1.40;;;;;;;5.19;90.03;97783.28;5062610;28;20040;-60
2023/04/13 01:56:08;;;;;;;5.10;1.50;;;;;;;5.22;89.88;97785.47;5058318;28;20047;-60
2023/04/13 01:58:35;;;;;;;5.72;1.70;;;;;;;5.13;90.45;97779.75;5061375;28;20044;-60
2023/04/13 02:01:11;;;;;;;6.90;1.50;;;;;;;5.09;91.07;97777.81;5062168;28;20056;-59
2023/04/13 02:03:38;;;;;;;7.32;1.85;;;;;;;5.18;90.78;97782.47;5056402;28;20768;-59
2023/04/13 02:06:06;;;;;;;10.57;2.00;;;;;;;5.18;91.00;97792.28;5055751;28;20041;-60
2023/04/13 02:08:35;;;;;;;5.72;1.40;;;;;;;5.10;91.09;97784.75;5053991;28;20440;-60
2023/04/13 02:11:03;;;;;;;3.75;1.27;;;;;;;5.14;91.79;97788.50;5059286;28;20044;-60
2023/04/13 02:13:30;;;;;;;5.47;1.90;;;;;;;5.11;92.16;97781.03;5059676;28;20044;-60
2023/04/13 02:15:58;;;;;;;8.00;1.90;;;;;;;5.10;92.43;97779.44;5058457;28;20447;-60
2023/04/13 02:18:26;;;;;;;10.45;2.00;;;;;;;5.11;92.22;97775.72;5058400;28;20033;-59
2023/04/13 02:20:59;;;;;;;6.25;1.60;;;;;;;5.15;91.85;97780.31;5060431;28;20068;-60
2023/04/13 02:23:28;;;;;;;3.60;1.30;;;;;;;5.17;92.69;97780.06;5049047;28;20053;-59
2023/04/13 02:25:55;;;;;;;9.35;2.05;;;;;;;5.22;92.23;97777.50;5044469;28;20051;-60
2023/04/13 02:28:22;;;;;;;2.67;1.10;;;;;;;5.27;91.67;97774.91;5050517;28;20128;-60
2023/04/13 02:30:50;;;;;;;2.80;1.30;;;;;;;5.30;91.02;97784.25;5068132;28;20037;-60
2023/04/13 02:33:18;;;;;;;5.78;1.60;;;;;;;5.26;91.98;97780.47;5062740;28;20052;-61
2023/04/13 02:35:47;;;;;;;8.73;2.08;;;;;;;5.22;91.42;97774.84;5052678;28;20749;-60
2023/04/13 02:38:15;;;;;;;4.78;1.58;;;;;;;5.29;91.65;97780.78;5056309;28;20473;-59
2023/04/13 02:40:46;;;;;;;11.20;1.80;;;;;;;5.32;91.26;97777.66;5041887;28;20475;-60
2023/04/13 02:43:13;;;;;;;3.65;1.50;;;;;;;5.37;92.15;97780.38;5058920;28;20044;-59
2023/04/13 02:45:42;;;;;;;8.27;1.70;;;;;;;5.33;90.88;97779.25;5062602;28;20046;-60
2023/04/13 02:48:12;;;;;;;;;;;;;;;5.39;91.16;97778.28;5061904;28;20041;-60
2023/04/13 02:50:39;;;;;;;5.43;1.70;;;;;;;5.31;91.55;97770.69;5047608;28;19925;-59
2023/04/13 02:53:11;;;;;;;4.75;1.85;;;;;;;5.34;91.38;97764.91;5052462;28;20527;-60
2023/04/13 02:55:41;;;;;;;7.78;1.98;;;;;;;5.33;92.24;97771.28;5070983;28;20044;-60
2023/04/13 02:58:11;;;;;;;4.85;1.83;;;;;;;5.30;92.66;97774.41;5058416;28;20119;-60
2023/04/13 03:00:39;;;;;;;11.63;2.10;;;;;;;5.35;92.47;97765.72;5054150;28;20044;-60
2023/04/13 03:03:10;;;;;;;12.55;2.38;;;;;;;5.30;92.06;97773.63;5052436;28;20451;-60
2023/04/13 03:05:43;;;;;;;8.60;1.70;;;;;;;5.36;93.27;97760.16;5050481;28;20116;-60
2023/04/13 03:08:16;;;;;;;5.35;1.70;;;;;;;5.39;92.00;97765.00;5051790;28;20157;-60
2023/04/13 03:10:55;;;;;;;4.90;2.03;;;;;;;5.38;92.36;97775.84;5061071;28;20078;-60
2023/04/13 03:13:23;;;;;;;9.13;1.90;;;;;;;5.34;91.96;97770.25;5053931;28;20528;-60
2023/04/13 03:15:56;;;;;;;9.65;1.85;;;;;;;5.36;92.18;97768.13;5055119;28;20059;-60
2023/04/13 03:18:26;;;;;;;8.73;1.73;;;;;;;5.40;91.58;97769.25;5052609;28;20056;-59
2023/04/13 03:20:53;;;;;;;8.88;2.00;;;;;;;5.39;92.27;97770.31;5054015;28;20044;-60
2023/04/13 03:23:24;;;;;;;7.10;2.15;;;;;;;5.37;91.68;97779.56;5059236;28;20056;-60
2023/04/13 03:25:52;;;;;;;5.63;1.83;;;;;;;5.41;91.65;97767.38;5073286;28;20048;-60
2023/04/13 03:28:22;;;;;;;5.45;1.80;;;;;;;5.41;92.10;97765.53;5053228;28;22022;-60
2023/04/13 03:30:52;;;;;;;7.40;2.08;;;;;;;5.54;91.64;97767.06;5057295;28;20036;-60
2023/04/13 03:33:19;;;;;;;6.97;2.10;;;;;;;5.53;91.02;97772.59;5055866;28;20053;-60
2023/04/13 03:35:47;;;;;;;8.43;2.25;;;;;;;5.49;91.36;97771.47;5051469;28;20044;-60
2023/04/13 03:38:28;;;;;;;11.57;2.13;;;;;;;5.52;91.81;97765.69;5051816;28;20547;-59
2023/04/13 03:40:55;;;;;;;11.10;2.13;;;;;;;5.53;91.03;97767.28;5064580;28;20037;-60
2023/04/13 03:43:23;;;;;;;7.93;1.83;;;;;;;5.52;90.74;97768.34;5048218;28;20067;-60
2023/04/13 03:45:59;;;;;;;5.13;1.70;;;;;;;5.56;90.97;97777.44;5050545;28;20608;-60
2023/04/13 03:48:27;;;;;;;7.20;1.90;;;;;;;5.59;90.35;97783.06;5052582;28;20130;-60
2023/04/13 03:50:55;;;;;;;5.45;1.75;;;;;;;5.59;90.41;97779.59;5049656;28;20087;-59
2023/04/13 03:53:28;;;;;;;5.53;1.75;;;;;;;5.62;90.17;97771.16;5050987;28;20052;-60
2023/04/13 03:55:56;;;;;;;6.63;1.95;;;;;;;5.61;90.38;97785.47;5050681;28;20064;-60
2023/04/13 03:58:23;;;;;;;10.00;2.20;;;;;;;5.63;90.05;97784.16;5054158;28;20083;-60
2023/04/13 04:00:51;;;;;;;6.78;1.70;;;;;;;5.62;90.65;97792.41;5056674;28;20138;-60
2023/04/13 04:03:25;;;;;;;6.32;1.83;;;;;;;5.67;90.04;97800.44;5052399;28;20151;-60
2023/04/13 04:05:56;;;;;;;10.07;2.40;;;;;;;5.60;91.20;97789.19;5049937;28;20159;-60
2023/04/13 04:08:25;;;;;;;7.93;1.98;;;;;;;5.61;91.72;97788.13;5056662;28;20119;-60
2023/04/13 04:10:57;;;;;;;12.68;2.28;;;;;;;5.58;91.55;97786.75;5057517;28;20124;-60
2023/04/13 04:13:29;;;;;;;11.38;2.00;;;;;;;5.60;92.45;97795.31;5049188;28;20052;-60
2023/04/13 04:15:58;;;;;;;10.52;2.45;;;;;;;5.63;92.61;97796.66;5054493;28;20064;-60
2023/04/13 04:18:30;;;;;;;7.60;2.20;;;;;;;5.55;92.60;97789.13;5063363;28;20526;-60
2023/04/13 04:20:57;;;;;;;7.50;2.00;;;;;;;5.46;94.05;97804.66;5054011;28;20551;-60
2023/04/13 04:23:27;;;;;;;10.20;3.03;;;;;;;5.44;95.31;97806.75;5053160;28;20175;-61
2023/04/13 04:26:01;;;;;;;9.40;2.13;;;;;;;5.49;96.14;97809.50;5050824;28;20263;-60
2023/04/13 04:28:37;;;;;;;7.90;2.30;;;;;;;5.40;96.10;97803.78;5063044;28;20052;-60
2023/04/13 04:31:09;;;;;;;12.93;2.20;;;;;;;5.39;97.70;97804.84;5050476;28;20075;-60
2023/04/13 04:33:38;;;;;;;9.77;2.35;;;;;;;5.33;98.69;97805.00;5054966;28;20457;-60
2023/04/13 04:36:07;;;;;;;17.05;2.40;;;;;;;5.34;99.29;97811.91;5032378;28;20128;-60
2023/04/13 04:38:35;;;;;;;5.15;1.60;;;;;;;5.26;99.61;97815.78;5057415;28;20048;-60
2023/04/13 04:41:07;;;;;;;13.63;2.40;;;;;;;5.25;100.00;97816.06;5047814;28;20048;-59
2023/04/13 04:43:37;;;;;;;6.95;1.88;;;;;;;5.30;100.00;97824.09;5064839;28;20123;-60
2023/04/13 04:46:07;;;;;;;6.47;2.35;;;;;;;5.22;100.00;97820.00;5059605;28;20123;-60
2023/04/13 04:48:37;;;;;;;10.50;2.28;;;;;;;5.30;100.00;97821.44;5063287;28;20514;-61
2023/04/13 04:51:07;;;;;;;6.43;1.80;;;;;;;5.28;100.00;97823.53;5054568;28;20040;-60
2023/04/13 04:53:35;;;;;;;8.00;2.45;;;;;;;5.24;100.00;97830.38;5063966;28;20493;-60
2023/04/13 04:56:08;;;;;;;12.65;2.60;;;;;;;5.27;100.00;97830.69;5054684;28;20067;-60
2023/04/13 04:58:41;;;;;;;10.70;2.60;;;;;;;5.32;100.00;97836.09;5063873;28;20476;-61
2023/04/13 05:01:09;;;;;;;6.95;2.22;;;;;;;5.25;100.00;97840.75;5054678;28;20604;-59
2023/04/13 05:03:37;;;;;;;9.27;2.08;;;;;;;5.38;100.00;97834.31;5053415;28;20098;-60
2023/04/13 05:06:21;;;;;;;8.18;2.03;;;;;;;5.38;100.00;97844.94;5052370;28;20036;-59
2023/04/13 05:08:48;;;;;;;8.05;1.90;;;;;;;5.48;99.40;97839.78;5064066;28;20045;-59
2023/04/13 05:11:17;;;;;;;8.52;2.40;;;;;;;5.49;99.56;97843.22;5061683;28;20044;-60
2023/04/13 05:13:44;;;;;;;7.35;2.08;;;;;;;5.52;100.00;97845.44;5070102;28;20052;-61
2023/04/13 05:16:19;;;;;;;6.43;2.00;;;;;;;5.49;99.35;97845.88;5056598;28;20497;-59
2023/04/13 05:18:46;;;;;;;9.02;2.10;;;;;;;5.53;98.87;97852.34;5071271;28;20041;-61
2023/04/13 05:21:33;;;;;;;10.38;2.20;;;;;;;5.51;98.98;97852.56;5057042;28;20776;-61
2023/04/13 05:24:01;;;;;;;10.55;2.00;;;;;;;5.53;98.74;97852.34;5055427;28;20483;-61
2023/04/13 05:26:30;;;;;;;10.15;2.00;;;;;;;5.48;99.48;97847.75;5053004;28;20431;-61
2023/04/13 05:28:58;;;;;;;12.95;2.00;;;;;;;5.61;99.10;97843.94;5067114;28;20055;-61
2023/04/13 05:31:27;;;;;;;9.38;1.88;;;;;;;5.80;97.80;97847.94;5058771;28;20036;-61
2023/04/13 05:34:00;;;;;;;7.60;1.73;;;;;;;5.68;96.89;97844.56;5062182;28;20048;-60
2023/04/13 05:36:30;;;;;;;6.05;1.98;;;;;;;5.66;97.36;97849.31;5058063;28;20526;-60
2023/04/13 05:38:58;;;;;;;6.78;1.70;;;;;;;5.64;97.14;97835.47;5061749;28;20132;-60
2023/04/13 05:41:27;;;;;;;3.70;1.60;;;;;;;5.72;97.10;97856.34;5053023;28;20040;-60
2023/04/13 05:43:57;;;;;;;3.88;1.77;;;;;;;5.82;96.89;97858.34;5052864;28;20041;-60
2023/04/13 05:46:24;;;;;;;7.28;1.75;;;;;;;5.82;97.34;97864.47;5049504;28;20700;-60
2023/04/13 05:48:52;;;;;;;6.18;1.70;;;;;;;5.67;96.35;97863.44;5057195;28;20527;-60
2023/04/13 05:51:19;;;;;;;5.15;1.83;;;;;;;5.82;96.56;97866.31;5054098;28;20685;-61
2023/04/13 05:53:46;;;;;;;4.30;1.67;;;;;;;5.63;96.65;97865.78;5059205;28;20048;-61
2023/04/13 05:56:17;;;;;;;5.97;1.90;;;;;;;5.70;96.39;97876.25;5039691;28;20537;-61
2023/04/13 05:58:45;;;;;;;6.15;1.88;;;;;;;5.74;96.99;97880.00;5059139;28;20064;-59
2023/04/13 06:01:20;;;;;;;7.22;1.98;;;;;;;5.81;95.91;97892.09;5055889;28;20041;-59
2023/04/13 06:03:47;;;;;;;7.13;2.15;;;;;;;5.87;95.76;97886.88;5050215;28;20043;-60
2023/04/13 06:06:16;;;;;;;3.20;1.55;;;;;;;5.91;95.23;97893.28;5059770;28;20048;-60
2023/04/13 06:08:44;;;;;;;8.18;1.83;;;;;;;5.91;96.24;97891.44;5054849;28;20245;-60
2023/04/13 06:11:12;;;;;;;8.32;1.98;;;;;;;5.70;97.02;97898.31;5075693;28;20040;-60
2023/04/13 06:13:40;;;;;;;7.20;1.83;;;;;;;5.76;97.04;97909.81;5056789;28;20437;-60
2023/04/13 06:16:09;;;;;;;6.07;1.70;;;;;;;5.67;98.02;97903.31;5051449;28;20032;-62
2023/04/13 06:18:38;;;;;;;7.22;2.25;;;;;;;5.72;97.62;97903.41;5056690;28;20028;-60
2023/04/13 06:21:07;;;;;;;4.60;1.83;;;;;;;5.74;97.32;97917.22;5052442;28;20037;-59
2023/04/13 06:23:34;;;;;;;4.72;1.50;;;;;;;5.87;97.17;97924.09;5051627;28;20131;-60
2023/04/13 06:26:06;;;;;;;7.25;2.10;;;;;;;5.98;97.28;97925.88;5059765;28;20131;-60
2023/04/13 06:28:44;;;;;;;8.65;2.00;;;;;;;5.91;97.60;97917.22;5051693;28;20133;-59
2023/04/13 06:31:11;;;;;;;6.95;1.85;;;;;;;6.10;98.16;97921.25;5057831;28;20052;-59
2023/04/13 06:33:40;;;;;;;10.20;2.38;;;;;;;6.12;97.93;97932.47;5073778;28;20044;-59
2023/04/13 06:36:08;;;;;;;4.55;1.70;;;;;;;5.95;97.46;97929.03;5048539;28;20041;-59
2023/04/13 06:38:36;;;;;;;6.55;1.70;;;;;;;6.10;97.83;97947.84;5052065;28;20539;-59
2023/04/13 06:41:08;;;;;;;6.22;1.75;;;;;;;6.25;97.27;97936.63;5055696;28;20044;-61
2023/04/13 06:43:39;;;;;;;5.15;1.70;;;;;;;6.22;97.29;97937.91;5064055;28;20493;-59
2023/04/13 06:46:33;;;;;;;5.50;1.70;;;;;;;6.13;96.98;97941.25;5052779;28;20037;-59
2023/04/13 06:49:08;;;;;;;4.95;2.03;;;;;;;6.26;97.29;97939.03;5058300;28;20069;-61
2023/04/13 06:51:38;;;;;;;4.53;1.88;;;;;;;6.17;96.74;97947.69;5057424;28;20131;-62
2023/04/13 06:54:08;;;;;;;7.88;2.08;;;;;;;6.21;97.08;97938.94;5055528;28;20040;-61
2023/04/13 06:56:40;;;;;;;3.58;1.60;;;;;;;6.19;96.98;97942.91;5053735;28;20561;-61
2023/04/13 06:59:07;;;;;;;5.80;1.80;;;;;;;6.19;96.62;97951.72;5051863;28;20033;-61
2023/04/13 07:01:34;;;;;;;7.20;1.65;;;;;;;6.37;96.13;97947.97;5056216;28;20041;-61
2023/04/13 07:04:02;;;;;;;8.63;2.00;;;;;;;6.29;95.84;97952.88;5074268;28;20441;-59
2023/04/13 07:06:33;;;;;;;8.90;1.60;;;;;;;6.50;95.64;97957.44;5057165;28;20037;-61
2023/04/13 07:09:01;;;;;;;6.47;2.00;;;;;;;6.70;93.64;97951.56;5049888;28;20038;-60
2023/04/13 07:11:30;;;;;;;3.88;1.60;;;;;;;7.99;89.35;97963.19;5055167;28;20051;-60
2023/04/13 07:13:57;;;;;;;3.58;1.50;;;;;;;8.59;84.80;97963.81;5062864;28;20052;-61
2023/04/13 07:16:27;;;;;;;5.03;1.52;;;;;;;8.90;81.95;97960.47;5051119;28;20153;-60
2023/04/13 07:18:54;;;;;;;5.97;1.67;;;;;;;9.67;79.58;97972.09;5057488;28;20036;-60
2023/04/13 07:21:22;;;;;;;5.65;1.88;;;;;;;9.57;79.31;97969.44;5064766;28;20044;-59
2023/04/13 07:24:01;;;;;;;8.07;1.77;;;;;;;9.04;81.80;97966.94;5053665;28;20145;-60
2023/04/13 07:26:29;;;;;;;7.10;1.73;;;;;;;9.01;81.17;97984.28;5052066;28;20123;-60
2023/04/13 07:28:57;;;;;;;4.22;1.42;;;;;;;8.33;83.33;97976.19;5051888;28;20557;-60
2023/04/13 07:31:28;;;;;;;5.28;1.80;;;;;;;8.18;84.38;97990.25;5056566;28;20053;-60
2023/04/13 07:33:56;;;;;;;4.70;1.50;;;;;;;8.32;84.96;97987.94;5058028;28;20049;-60
2023/04/13 07:36:30;;;;;;;6.72;1.70;;;;;;;8.32;84.62;97993.28;5060256;28;20048;-60
2023/04/13 07:39:03;;;;;;;5.05;1.33;;;;;;;8.10;86.53;98000.59;5057729;28;20041;-60
2023/04/13 07:41:32;;;;;;;9.38;1.70;;;;;;;7.42;88.36;98006.44;5057519;28;20040;-60
2023/04/13 07:44:03;;;;;;;5.38;1.85;;;;;;;7.81;88.20;98011.56;5073052;28;20052;-60
2023/04/13 07:46:30;;;;;;;12.45;2.10;;;;;;;7.95;87.26;98007.41;5057604;28;20045;-60
2023/04/13 07:48:57;;;;;;;4.28;1.60;;;;;;;7.86;87.41;98016.16;5051771;28;20426;-60
2023/04/13 07:51:31;;;;;;;3.72;1.73;;;;;;;7.80;87.34;98017.16;5054164;28;20550;-60
2023/04/13 07:53:58;;;;;;;5.90;1.60;;;;;;;7.60;87.81;98025.78;5060071;28;20120;-60
2023/04/13 07:56:29;;;;;;;7.72;1.92;;;;;;;7.49;88.92;98023.03;5057770;28;20045;-59
2023/04/13 07:58:57;;;;;;;3.80;1.97;;;;;;;7.58;89.39;98031.38;5052714;28;20098;-59
2023/04/13 08:01:25;;;;;;;5.63;1.90;;;;;;;7.59;90.32;98041.00;5051552;28;20297;-59
2023/04/13 08:03:52;;;;;;;4.93;1.38;;;;;;;7.60;88.37;98044.47;5051905;28;20049;-59
2023/04/13 08:06:22;;;;;;;9.77;1.80;;;;;;;7.82;88.26;98047.88;5049728;28;20048;-59
2023/04/13 08:08:52;;;;;;;6.03;1.88;;;;;;;7.83;86.86;98046.81;5055583;28;20130;-59
2023/04/13 08:11:19;;;;;;;7.18;1.83;;;;;;;7.78;86.56;98052.09;5057136;28;20041;-59
2023/04/13 08:13:49;;;;;;;5.47;1.67;;;;;;;8.08;86.43;98048.06;5076366;28;20283;-59
2023/04/13 08:16:16;;;;;;;7.80;1.95;;;;;;;7.99;85.11;98045.88;5079042;28;20033;-59
2023/04/13 08:18:43;;;;;;;4.03;1.73;;;;;;;8.44;84.41;98054.53;5058139;28;20041;-60
2023/04/13 08:21:13;;;;;;;4.13;1.77;;;;;;;9.99;78.22;98054.03;5069854;28;20128;-59
2023/04/13 08:23:42;;;;;;;5.17;2.00;;;;;;;10.53;74.00;98059.66;5062325;28;20164;-59
2023/04/13 08:26:16;;;;;;;7.72;1.67;;;;;;;10.46;75.04;98064.47;5061811;28;20294;-60
2023/04/13 08:28:43;;;;;;;2.97;1.42;;;;;;;9.59;75.87;98071.63;5058053;28;20072;-60
2023/04/13 08:31:12;;;;;;;3.92;1.33;;;;;;;9.37;79.69;98066.47;5059098;28;20044;-60
2023/04/13 08:33:42;;;;;;;3.33;1.30;;;;;;;9.52;78.84;98069.19;5062008;28;20534;-59
2023/04/13 08:36:10;;;;;;;3.10;1.30;;;;;;;9.80;77.70;98075.94;5045392;28;20084;-59
2023/04/13 08:38:37;;;;;;;3.17;1.33;;;;;;;9.78;77.68;98082.59;5061978;28;20041;-60
2023/04/13 08:41:05;;;;;;;3.47;1.35;;;;;;;9.93;75.82;98088.81;5026105;28;20040;-60
2023/04/13 08:43:34;;;;;;;4.05;1.73;;;;;;;9.75;79.37;98088.50;5028239;28;20752;-60
2023/04/13 08:46:03;;;;;;;3.92;1.52;;;;;;;10.77;73.33;98088.53;5044878;28;20287;-60
2023/04/13 08:48:32;;;;;;;6.07;1.58;;;;;;;11.22;71.16;98086.78;5045098;28;20090;-60
2023/04/13 08:51:00;;;;;;;5.68;1.58;;;;;;;10.68;71.47;98082.09;5047139;28;20099;-59
2023/04/13 08:53:29;;;;;;;3.33;1.35;;;;;;;10.36;72.76;98080.56;5073646;28;20044;-59
2023/04/13 08:55:59;;;;;;;6.03;1.75;;;;;;;12.01;69.17;98095.00;5072084;28;20178;-59
2023/04/13 08:58:26;;;;;;;3.85;1.25;;;;;;;11.34;68.72;98087.28;5072163;28;20048;-59
2023/04/13 09:00:53;;;;;;;5.28;1.60;;;;;;;11.56;69.28;98094.16;5053619;28;20048;-60
2023/04/13 09:03:23;;;;;;;4.50;1.23;;;;;;;10.97;70.58;98098.41;5052150;28;20052;-59
2023/04/13 09:05:54;;;;;;;4.60;1.58;;;;;;;11.66;69.06;98089.53;5070089;28;20076;-60
2023/04/13 09:08:21;;;;;;;3.13;0.90;;;;;;;10.76;70.73;98092.28;5053964;28;20041;-59
2023/04/13 09:10:49;;;;;;;2.25;1.35;;;;;;;10.21;73.34;98096.56;5053071;28;20045;-60
2023/04/13 09:13:16;;;;;;;3.45;1.40;;;;;;;10.98;71.26;98103.50;5056834;28;20470;-60
2023/04/13 09:15:47;;;;;;;1.88;1.05;;;;;;;10.13;72.47;98098.75;5058863;28;20044;-60
2023/04/13 09:18:51;;;;;;;2.30;1.20;;;;;;;11.33;71.67;98101.78;5049698;28;20090;-60
2023/04/13 09:21:20;;;;;;;2.80;1.30;;;;;;;11.52;68.60;98106.53;5053093;28;20449;-59
2023/04/13 09:23:54;;;;;;;1.65;0.90;;;;;;;11.22;69.85;98101.00;5059642;28;20102;-60
2023/04/13 09:26:21;;;;;;;2.92;1.30;;;;;;;12.13;66.54;98102.69;5055522;28;20049;-60
2023/04/13 09:28:49;;;;;;;4.07;1.40;;;;;;;11.07;66.50;98108.31;5053704;28;20060;-59
2023/04/13 09:31:16;;;;;;;3.65;1.23;;;;;;;11.17;66.81;98113.63;5050467;28;20124;-59
2023/04/13 09:33:44;;;;;;;3.53;1.48;;;;;;;10.93;66.28;98119.59;5048402;28;20045;-60
2023/04/13 09:36:12;;;;;;;1.85;1.27;;;;;;;11.24;67.01;98124.88;5068797;28;20037;-60
2023/04/13 09:38:40;;;;;;;4.50;1.50;;;;;;;11.82;65.91;98127.81;5057317;28;20139;-60
2023/04/13 09:41:07;;;;;;;4.40;1.58;;;;;;;12.80;62.96;98125.22;5059674;28;20047;-60
2023/04/13 09:43:36;;;;;;;2.83;1.30;;;;;;;14.01;57.69;98132.19;5058379;28;20487;-60
2023/04/13 09:46:03;;;;;;;4.30;1.42;;;;;;;12.88;59.98;98129.19;5056806;28;20173;-60
2023/04/13 09:48:30;;;;;;;2.88;1.23;;;;;;;12.51;63.63;98125.25;5049184;28;20099;-60
2023/04/13 09:50:58;;;;;;;3.80;1.13;;;;;;;11.40;64.24;98129.09;5055355;28;20378;-59
2023/04/13 09:53:26;;;;;;;3.25;1.23;;;;;;;12.26;64.61;98135.09;5048488;28;20044;-60
2023/04/13 09:55:58;;;;;;;2.60;1.20;;;;;;;10.93;71.22;98127.66;5051836;28;20060;-60
2023/04/13 09:58:25;;;;;;;3.13;1.20;;;;;;;9.71;82.75;98137.19;5053804;28;20280;-60
2023/04/13 10:00:53;;;;;;;5.00;1.65;;;;;;;9.87;84.96;98139.91;5047843;28;20044;-60
2023/04/13 10:03:22;;;;;;;6.32;1.65;;;;;;;9.69;85.38;98133.97;5060872;28;20037;-60
2023/04/13 10:05:49;;;;;;;4.90;1.73;;;;;;;10.02;82.26;98134.59;5050122;28;20045;-60
2023/04/13 10:08:19;;;;;;;6.28;1.42;;;;;;;10.70;78.05;98136.25;5054799;28;20053;-60
2023/04/13 10:10:46;;;;;;;5.35;1.30;;;;;;;11.41;75.09;98130.72;5051677;28;20418;-60
2023/04/13 10:13:16;;;;;;;3.17;1.60;;;;;;;13.71;67.97;98127.22;5052263;28;20080;-60
2023/04/13 10:15:53;;;;;;;4.97;1.48;;;;;;;14.21;62.07;98122.19;5055107;28;20345;-60
2023/04/13 10:18:25;;;;;;;2.70;1.40;;;;;;;13.06;62.06;98122.31;5055188;28;20064;-60
2023/04/13 10:20:52;;;;;;;2.67;1.30;;;;;;;12.92;62.12;98122.97;5051372;28;20044;-60
2023/04/13 10:23:19;;;;;;;5.70;2.15;;;;;;;13.22;60.05;98128.31;5045488;28;20136;-60
2023/04/13 10:25:50;;;;;;;3.95;1.60;;;;;;;13.82;57.46;98129.47;5056663;28;20629;-60
2023/04/13 10:28:20;;;;;;;3.25;1.20;;;;;;;12.66;59.12;98127.78;5051044;28;20457;-60
2023/04/13 10:30:50;;;;;;;2.67;1.25;;;;;;;12.54;62.05;98135.41;5059634;28;20040;-60
2023/04/13 10:33:17;;;;;;;2.20;1.17;;;;;;;13.19;62.48;98139.66;5049408;28;20112;-60
2023/04/13 10:35:54;;;;;;;3.25;1.38;;;;;;;12.63;62.77;98149.88;5053538;28;20080;-60
2023/04/13 10:38:21;;;;;;;2.47;1.10;;;;;;;12.90;61.53;98143.16;5054935;28;20068;-60
2023/04/13 10:40:48;;;;;;;6.15;1.27;;;;;;;12.85;61.33;98151.28;5052202;28;20052;-60
2023/04/13 10:43:27;;;;;;;3.40;1.33;;;;;;;12.65;61.36;98150.38;5050011;28;20045;-60
2023/04/13 10:46:05;;;;;;;3.38;1.50;;;;;;;12.54;62.41;98154.22;5047063;28;20045;-60
2023/04/13 10:48:32;;;;;;;2.05;1.10;;;;;;;12.90;61.68;98148.53;5055629;28;20144;-61
2023/04/13 10:50:59;;;;;;;3.50;1.48;;;;;;;13.24;56.18;98150.34;5052655;28;20497;-60
2023/04/13 10:53:29;;;;;;;5.13;1.50;;;;;;;13.46;56.44;98150.66;5047942;28;20092;-61
2023/04/13 10:55:56;;;;;;;4.80;1.50;;;;;;;13.11;55.94;98144.56;5051588;28;20068;-61
2023/04/13 10:58:23;;;;;;;6.53;1.60;;;;;;;13.46;54.38;98150.66;5050152;28;20041;-61
2023/04/13 11:00:53;;;;;;;3.53;1.30;;;;;;;14.02;53.91;98143.75;5053008;28;20037;-61
2023/04/13 11:03:20;;;;;;;5.45;1.65;;;;;;;13.99;54.36;98157.81;5056567;28;20049;-60
2023/04/13 11:05:47;;;;;;;4.03;1.50;;;;;;;14.36;53.88;98167.78;5055999;28;20047;-61
2023/04/13 11:08:19;;;;;;;3.40;1.50;;;;;;;14.19;53.32;98167.50;5053990;28;20037;-60
2023/04/13 11:10:51;;;;;;;5.20;1.88;;;;;;;13.65;54.04;98168.75;5048550;28;20315;-61
2023/04/13 11:13:18;;;;;;;6.53;2.10;;;;;;;13.37;54.54;98180.09;5051842;28;20049;-61
2023/04/13 11:15:45;;;;;;;5.78;1.30;;;;;;;13.27;54.21;98179.41;5050418;28;20069;-61
2023/04/13 11:18:13;;;;;;;4.93;1.70;;;;;;;13.65;52.14;98163.34;5047517;28;20052;-61
2023/04/13 11:20:41;;;;;;;6.38;1.55;;;;;;;14.04;50.38;98165.81;5053394;28;20040;-61
2023/04/13 11:23:14;;;;;;;6.35;1.77;;;;;;;13.27;52.41;98176.72;5055173;28;20037;-61
2023/04/13 11:25:51;;;;;;;5.93;1.73;;;;;;;13.49;51.71;98177.00;5054698;28;20094;-59
2023/04/13 11:28:18;;;;;;;7.30;1.95;;;;;;;13.32;52.60;98182.84;5052215;28;20464;-59
2023/04/13 11:30:52;;;;;;;6.80;2.30;;;;;;;12.97;52.85;98181.28;5054197;28;20139;-61
2023/04/13 11:33:25;;;;;;;7.28;2.05;;;;;;;13.30;53.16;98184.22;5054748;28;20131;-62
2023/04/13 11:35:53;;;;;;;4.70;1.60;;;;;;;12.87;53.98;98189.44;5051237;28;20049;-61
2023/04/13 11:38:20;;;;;;;5.32;1.83;;;;;;;12.63;55.34;98195.56;5054466;28;20233;-59
2023/04/13 11:40:47;;;;;;;5.70;1.55;;;;;;;11.95;59.11;98198.13;5053038;28;20203;-60
2023/04/13 11:43:14;;;;;;;4.82;1.70;;;;;;;12.35;58.37;98185.53;5051203;28;20067;-60
2023/04/13 11:45:42;;;;;;;4.10;1.67;;;;;;;13.17;54.62;98186.47;5060322;28;20405;-60
2023/04/13 11:48:09;;;;;;;5.10;1.30;;;;;;;13.76;53.54;98186.38;5060632;28;20121;-60
2023/04/13 11:50:38;;;;;;;5.78;1.70;;;;;;;13.93;52.22;98181.31;5060208;28;20629;-60